sensor_id;sensor_type;location;lat;lon;timestamp;P1;durP1;ratioP1;P2;durP2;ratioP2
428;SDS011;201;48.758;9.290;2022-08-21T00:01:18;5.20;;;4.03;;
428;SDS011;201;48.758;9.290;2022-08-21T00:03:45;4.37;;;4.07;;
428;SDS011;201;48.758;9.290;2022-08-21T00:06:11;4.80;;;3.53;;
428;SDS011;201;48.758;9.290;2022-08-21T00:08:36;5.40;;;4.10;;
428;SDS011;201;48.758;9.290;2022-08-21T00:11:02;3.87;;;3.63;;
428;SDS011;201;48.758;9.290;2022-08-21T00:13:28;3.97;;;3.77;;
428;SDS011;201;48.758;9.290;2022-08-21T00:15:54;3.97;;;3.30;;
428;SDS011;201;48.758;9.290;2022-08-21T00:18:20;4.03;;;3.70;;
428;SDS011;201;48.758;9.290;2022-08-21T00:20:46;3.83;;;3.63;;
428;SDS011;201;48.758;9.290;2022-08-21T00:23:12;5.23;;;3.80;;
428;SDS011;201;48.758;9.290;2022-08-21T00:25:39;4.00;;;3.50;;
428;SDS011;201;48.758;9.290;2022-08-21T00:28:06;5.00;;;3.80;;
428;SDS011;201;48.758;9.290;2022-08-21T00:30:32;4.13;;;3.57;;
428;SDS011;201;48.758;9.290;2022-08-21T00:32:59;3.73;;;3.53;;
428;SDS011;201;48.758;9.290;2022-08-21T00:35:28;3.40;;;3.10;;
428;SDS011;201;48.758;9.290;2022-08-21T00:37:55;4.00;;;3.80;;
428;SDS011;201;48.758;9.290;2022-08-21T00:40:23;5.23;;;4.07;;
428;SDS011;201;48.758;9.290;2022-08-21T00:42:55;3.90;;;3.50;;
428;SDS011;201;48.758;9.290;2022-08-21T00:45:22;4.10;;;3.90;;
428;SDS011;201;48.758;9.290;2022-08-21T00:47:49;4.10;;;3.40;;
428;SDS011;201;48.758;9.290;2022-08-21T00:50:17;5.57;;;3.40;;
428;SDS011;201;48.758;9.290;2022-08-21T00:52:43;5.23;;;3.57;;
428;SDS011;201;48.758;9.290;2022-08-21T00:55:10;4.90;;;3.93;;
428;SDS011;201;48.758;9.290;2022-08-21T00:57:38;4.90;;;4.20;;
428;SDS011;201;48.758;9.290;2022-08-21T01:00:10;5.43;;;3.30;;
428;SDS011;201;48.758;9.290;2022-08-21T01:02:38;3.90;;;3.70;;
428;SDS011;201;48.758;9.290;2022-08-21T01:05:05;4.67;;;3.70;;
428;SDS011;201;48.758;9.290;2022-08-21T01:07:31;4.23;;;3.97;;
428;SDS011;201;48.758;9.290;2022-08-21T01:09:57;3.50;;;3.33;;
428;SDS011;201;48.758;9.290;2022-08-21T01:12:23;3.90;;;3.47;;
428;SDS011;201;48.758;9.290;2022-08-21T01:14:48;5.10;;;3.57;;
428;SDS011;201;48.758;9.290;2022-08-21T01:17:14;6.40;;;3.07;;
428;SDS011;201;48.758;9.290;2022-08-21T01:19:41;3.20;;;2.90;;
428;SDS011;201;48.758;9.290;2022-08-21T01:22:07;6.10;;;3.60;;
428;SDS011;201;48.758;9.290;2022-08-21T01:24:33;5.03;;;3.70;;
428;SDS011;201;48.758;9.290;2022-08-21T01:26:59;3.17;;;2.97;;
428;SDS011;201;48.758;9.290;2022-08-21T01:29:30;4.90;;;3.73;;
428;SDS011;201;48.758;9.290;2022-08-21T01:32:13;4.57;;;3.83;;
428;SDS011;201;48.758;9.290;2022-08-21T01:34:42;3.00;;;2.80;;
428;SDS011;201;48.758;9.290;2022-08-21T01:37:10;11.60;;;4.50;;
428;SDS011;201;48.758;9.290;2022-08-21T01:39:37;4.73;;;3.87;;
428;SDS011;201;48.758;9.290;2022-08-21T01:42:03;4.83;;;3.33;;
428;SDS011;201;48.758;9.290;2022-08-21T01:44:30;3.70;;;3.50;;
428;SDS011;201;48.758;9.290;2022-08-21T01:46:58;3.40;;;3.20;;
428;SDS011;201;48.758;9.290;2022-08-21T01:49:25;4.93;;;3.60;;
428;SDS011;201;48.758;9.290;2022-08-21T01:51:51;3.83;;;3.27;;
428;SDS011;201;48.758;9.290;2022-08-21T01:54:17;4.27;;;3.60;;
428;SDS011;201;48.758;9.290;2022-08-21T01:56:45;6.83;;;3.70;;
428;SDS011;201;48.758;9.290;2022-08-21T01:59:12;6.63;;;4.00;;
428;SDS011;201;48.758;9.290;2022-08-21T02:01:39;4.07;;;3.87;;
428;SDS011;201;48.758;9.290;2022-08-21T02:04:04;6.00;;;3.37;;
428;SDS011;201;48.758;9.290;2022-08-21T02:06:32;4.63;;;3.70;;
428;SDS011;201;48.758;9.290;2022-08-21T02:08:57;5.33;;;3.60;;
428;SDS011;201;48.758;9.290;2022-08-21T02:11:23;5.17;;;3.90;;
428;SDS011;201;48.758;9.290;2022-08-21T02:13:49;4.43;;;4.13;;
428;SDS011;201;48.758;9.290;2022-08-21T02:16:14;6.23;;;5.20;;
428;SDS011;201;48.758;9.290;2022-08-21T02:18:40;6.50;;;4.17;;
428;SDS011;201;48.758;9.290;2022-08-21T02:21:06;4.87;;;4.00;;
428;SDS011;201;48.758;9.290;2022-08-21T02:23:32;7.60;;;4.70;;
428;SDS011;201;48.758;9.290;2022-08-21T02:25:58;5.67;;;4.47;;
428;SDS011;201;48.758;9.290;2022-08-21T02:28:28;4.60;;;4.40;;
428;SDS011;201;48.758;9.290;2022-08-21T02:30:54;8.60;;;3.80;;
428;SDS011;201;48.758;9.290;2022-08-21T02:33:21;5.03;;;3.97;;
428;SDS011;201;48.758;9.290;2022-08-21T02:35:47;4.97;;;3.93;;
428;SDS011;201;48.758;9.290;2022-08-21T02:38:15;5.93;;;4.60;;
428;SDS011;201;48.758;9.290;2022-08-21T02:40:43;4.00;;;3.80;;
428;SDS011;201;48.758;9.290;2022-08-21T02:43:10;5.40;;;4.57;;
428;SDS011;201;48.758;9.290;2022-08-21T02:45:36;4.30;;;4.03;;
428;SDS011;201;48.758;9.290;2022-08-21T02:48:04;4.90;;;4.33;;
428;SDS011;201;48.758;9.290;2022-08-21T02:50:37;7.77;;;4.77;;
428;SDS011;201;48.758;9.290;2022-08-21T02:53:05;10.43;;;4.40;;
428;SDS011;201;48.758;9.290;2022-08-21T02:55:32;5.30;;;5.00;;
428;SDS011;201;48.758;9.290;2022-08-21T02:58:00;4.50;;;4.03;;
428;SDS011;201;48.758;9.290;2022-08-21T03:00:28;6.93;;;4.33;;
428;SDS011;201;48.758;9.290;2022-08-21T03:02:55;10.00;;;5.37;;
428;SDS011;201;48.758;9.290;2022-08-21T03:05:21;7.30;;;5.83;;
428;SDS011;201;48.758;9.290;2022-08-21T03:07:47;5.27;;;4.97;;
428;SDS011;201;48.758;9.290;2022-08-21T03:10:13;5.50;;;4.93;;
428;SDS011;201;48.758;9.290;2022-08-21T03:12:40;6.63;;;4.63;;
428;SDS011;201;48.758;9.290;2022-08-21T03:15:07;8.20;;;4.63;;
428;SDS011;201;48.758;9.290;2022-08-21T03:17:34;5.60;;;5.03;;
428;SDS011;201;48.758;9.290;2022-08-21T03:20:01;7.43;;;5.80;;
428;SDS011;201;48.758;9.290;2022-08-21T03:22:28;6.53;;;4.90;;
428;SDS011;201;48.758;9.290;2022-08-21T03:24:53;6.97;;;5.27;;
428;SDS011;201;48.758;9.290;2022-08-21T03:27:19;5.20;;;4.93;;
428;SDS011;201;48.758;9.290;2022-08-21T03:29:45;6.70;;;4.97;;
428;SDS011;201;48.758;9.290;2022-08-21T03:32:10;6.87;;;5.43;;
428;SDS011;201;48.758;9.290;2022-08-21T03:34:37;7.37;;;5.87;;
428;SDS011;201;48.758;9.290;2022-08-21T03:37:04;8.70;;;6.03;;
428;SDS011;201;48.758;9.290;2022-08-21T03:39:30;6.43;;;5.00;;
428;SDS011;201;48.758;9.290;2022-08-21T03:41:56;7.30;;;5.83;;
428;SDS011;201;48.758;9.290;2022-08-21T03:44:22;6.10;;;5.80;;
428;SDS011;201;48.758;9.290;2022-08-21T03:46:48;7.50;;;5.17;;
428;SDS011;201;48.758;9.290;2022-08-21T03:49:14;6.13;;;5.80;;
428;SDS011;201;48.758;9.290;2022-08-21T03:51:39;5.80;;;5.50;;
428;SDS011;201;48.758;9.290;2022-08-21T03:54:05;6.40;;;6.00;;
428;SDS011;201;48.758;9.290;2022-08-21T03:56:30;6.10;;;4.97;;
428;SDS011;201;48.758;9.290;2022-08-21T03:58:56;6.60;;;6.07;;
428;SDS011;201;48.758;9.290;2022-08-21T04:01:22;8.97;;;5.70;;
428;SDS011;201;48.758;9.290;2022-08-21T04:03:48;5.60;;;5.30;;
428;SDS011;201;48.758;9.290;2022-08-21T04:06:13;6.50;;;5.90;;
428;SDS011;201;48.758;9.290;2022-08-21T04:08:39;5.70;;;5.40;;
428;SDS011;201;48.758;9.290;2022-08-21T04:11:07;7.60;;;6.20;;
428;SDS011;201;48.758;9.290;2022-08-21T04:13:35;8.40;;;5.90;;
428;SDS011;201;48.758;9.290;2022-08-21T04:16:01;5.97;;;5.67;;
428;SDS011;201;48.758;9.290;2022-08-21T04:18:26;5.93;;;5.53;;
428;SDS011;201;48.758;9.290;2022-08-21T04:20:52;8.63;;;6.50;;
428;SDS011;201;48.758;9.290;2022-08-21T04:23:20;10.13;;;6.47;;
428;SDS011;201;48.758;9.290;2022-08-21T04:25:46;7.50;;;5.97;;
428;SDS011;201;48.758;9.290;2022-08-21T04:28:12;9.30;;;6.73;;
428;SDS011;201;48.758;9.290;2022-08-21T04:30:37;7.80;;;6.17;;
428;SDS011;201;48.758;9.290;2022-08-21T04:33:03;7.17;;;6.77;;
428;SDS011;201;48.758;9.290;2022-08-21T04:35:29;6.97;;;5.77;;
428;SDS011;201;48.758;9.290;2022-08-21T04:37:54;6.93;;;6.50;;
428;SDS011;201;48.758;9.290;2022-08-21T04:40:21;6.97;;;6.23;;
428;SDS011;201;48.758;9.290;2022-08-21T04:42:49;8.03;;;6.70;;
428;SDS011;201;48.758;9.290;2022-08-21T04:45:24;7.27;;;6.40;;
428;SDS011;201;48.758;9.290;2022-08-21T04:47:52;6.57;;;6.13;;
428;SDS011;201;48.758;9.290;2022-08-21T04:50:19;6.00;;;5.73;;
428;SDS011;201;48.758;9.290;2022-08-21T04:52:49;6.83;;;6.40;;
428;SDS011;201;48.758;9.290;2022-08-21T04:55:16;7.93;;;6.60;;
428;SDS011;201;48.758;9.290;2022-08-21T04:57:42;6.47;;;6.07;;
428;SDS011;201;48.758;9.290;2022-08-21T05:00:08;8.70;;;6.67;;
428;SDS011;201;48.758;9.290;2022-08-21T05:02:35;7.37;;;6.93;;
428;SDS011;201;48.758;9.290;2022-08-21T05:05:02;7.40;;;6.43;;
428;SDS011;201;48.758;9.290;2022-08-21T05:07:29;7.77;;;7.37;;
428;SDS011;201;48.758;9.290;2022-08-21T05:09:56;6.77;;;6.37;;
428;SDS011;201;48.758;9.290;2022-08-21T05:12:22;7.20;;;6.70;;
428;SDS011;201;48.758;9.290;2022-08-21T05:14:48;7.23;;;6.83;;
428;SDS011;201;48.758;9.290;2022-08-21T05:17:13;5.77;;;5.47;;
428;SDS011;201;48.758;9.290;2022-08-21T05:19:39;7.97;;;6.70;;
428;SDS011;201;48.758;9.290;2022-08-21T05:22:05;6.43;;;6.10;;
428;SDS011;201;48.758;9.290;2022-08-21T05:24:31;9.40;;;6.17;;
428;SDS011;201;48.758;9.290;2022-08-21T05:26:57;8.53;;;6.43;;
428;SDS011;201;48.758;9.290;2022-08-21T05:29:23;5.90;;;5.60;;
428;SDS011;201;48.758;9.290;2022-08-21T05:31:48;5.50;;;5.20;;
428;SDS011;201;48.758;9.290;2022-08-21T05:34:15;5.90;;;5.47;;
428;SDS011;201;48.758;9.290;2022-08-21T05:36:44;6.87;;;5.57;;
428;SDS011;201;48.758;9.290;2022-08-21T05:39:09;5.00;;;4.70;;
428;SDS011;201;48.758;9.290;2022-08-21T05:41:35;6.50;;;4.77;;
428;SDS011;201;48.758;9.290;2022-08-21T05:44:00;5.33;;;4.40;;
428;SDS011;201;48.758;9.290;2022-08-21T05:46:26;4.93;;;4.63;;
428;SDS011;201;48.758;9.290;2022-08-21T05:48:51;4.70;;;4.30;;
428;SDS011;201;48.758;9.290;2022-08-21T05:51:17;4.33;;;4.07;;
428;SDS011;201;48.758;9.290;2022-08-21T05:53:42;5.17;;;3.77;;
428;SDS011;201;48.758;9.290;2022-08-21T05:56:09;4.20;;;3.20;;
428;SDS011;201;48.758;9.290;2022-08-21T05:58:36;3.30;;;3.10;;
428;SDS011;201;48.758;9.290;2022-08-21T06:01:02;3.20;;;3.00;;
428;SDS011;201;48.758;9.290;2022-08-21T06:03:31;3.00;;;2.80;;
428;SDS011;201;48.758;9.290;2022-08-21T06:05:58;4.80;;;3.10;;
428;SDS011;201;48.758;9.290;2022-08-21T06:08:24;6.50;;;3.07;;
428;SDS011;201;48.758;9.290;2022-08-21T06:10:51;4.03;;;2.90;;
428;SDS011;201;48.758;9.290;2022-08-21T06:13:18;4.40;;;3.50;;
428;SDS011;201;48.758;9.290;2022-08-21T06:15:45;3.13;;;2.93;;
428;SDS011;201;48.758;9.290;2022-08-21T06:18:11;3.10;;;2.90;;
428;SDS011;201;48.758;9.290;2022-08-21T06:20:36;2.87;;;2.57;;
428;SDS011;201;48.758;9.290;2022-08-21T06:23:03;2.80;;;2.60;;
428;SDS011;201;48.758;9.290;2022-08-21T06:25:29;2.80;;;2.60;;
428;SDS011;201;48.758;9.290;2022-08-21T06:28:05;3.20;;;3.00;;
428;SDS011;201;48.758;9.290;2022-08-21T06:30:33;3.40;;;2.70;;
428;SDS011;201;48.758;9.290;2022-08-21T06:32:59;8.67;;;2.57;;
428;SDS011;201;48.758;9.290;2022-08-21T06:35:26;2.57;;;2.47;;
428;SDS011;201;48.758;9.290;2022-08-21T06:37:53;3.83;;;2.80;;
428;SDS011;201;48.758;9.290;2022-08-21T06:40:19;5.03;;;2.70;;
428;SDS011;201;48.758;9.290;2022-08-21T06:42:45;2.87;;;2.67;;
428;SDS011;201;48.758;9.290;2022-08-21T06:45:11;3.73;;;2.47;;
428;SDS011;201;48.758;9.290;2022-08-21T06:47:36;2.30;;;2.10;;
428;SDS011;201;48.758;9.290;2022-08-21T06:50:02;3.20;;;2.10;;
428;SDS011;201;48.758;9.290;2022-08-21T06:52:28;4.90;;;3.23;;
428;SDS011;201;48.758;9.290;2022-08-21T06:54:54;5.00;;;2.33;;
428;SDS011;201;48.758;9.290;2022-08-21T06:57:21;2.67;;;2.20;;
428;SDS011;201;48.758;9.290;2022-08-21T06:59:46;2.40;;;2.20;;
428;SDS011;201;48.758;9.290;2022-08-21T07:02:12;2.83;;;2.63;;
428;SDS011;201;48.758;9.290;2022-08-21T07:04:37;3.10;;;2.43;;
428;SDS011;201;48.758;9.290;2022-08-21T07:07:03;2.77;;;2.57;;
428;SDS011;201;48.758;9.290;2022-08-21T07:09:28;3.77;;;3.03;;
428;SDS011;201;48.758;9.290;2022-08-21T07:11:55;2.90;;;2.70;;
428;SDS011;201;48.758;9.290;2022-08-21T07:14:21;3.63;;;2.77;;
428;SDS011;201;48.758;9.290;2022-08-21T07:16:47;4.50;;;2.40;;
428;SDS011;201;48.758;9.290;2022-08-21T07:19:14;3.60;;;2.77;;
428;SDS011;201;48.758;9.290;2022-08-21T07:21:39;3.60;;;2.70;;
428;SDS011;201;48.758;9.290;2022-08-21T07:24:05;2.43;;;2.10;;
428;SDS011;201;48.758;9.290;2022-08-21T07:26:30;3.40;;;2.57;;
428;SDS011;201;48.758;9.290;2022-08-21T07:28:56;2.60;;;2.40;;
428;SDS011;201;48.758;9.290;2022-08-21T07:31:22;6.17;;;2.50;;
428;SDS011;201;48.758;9.290;2022-08-21T07:33:49;3.80;;;2.73;;
428;SDS011;201;48.758;9.290;2022-08-21T07:36:14;2.90;;;2.43;;
428;SDS011;201;48.758;9.290;2022-08-21T07:38:40;2.80;;;2.47;;
428;SDS011;201;48.758;9.290;2022-08-21T07:41:08;5.73;;;2.83;;
428;SDS011;201;48.758;9.290;2022-08-21T07:43:39;3.90;;;3.00;;
428;SDS011;201;48.758;9.290;2022-08-21T07:46:04;3.83;;;2.63;;
428;SDS011;201;48.758;9.290;2022-08-21T07:48:30;3.53;;;2.53;;
428;SDS011;201;48.758;9.290;2022-08-21T07:50:55;5.87;;;3.17;;
428;SDS011;201;48.758;9.290;2022-08-21T07:53:21;5.40;;;3.53;;
428;SDS011;201;48.758;9.290;2022-08-21T07:55:47;5.27;;;2.93;;
428;SDS011;201;48.758;9.290;2022-08-21T07:58:13;3.80;;;3.20;;
428;SDS011;201;48.758;9.290;2022-08-21T08:00:38;4.67;;;3.53;;
428;SDS011;201;48.758;9.290;2022-08-21T08:03:05;4.80;;;3.10;;
428;SDS011;201;48.758;9.290;2022-08-21T08:05:31;5.17;;;3.33;;
428;SDS011;201;48.758;9.290;2022-08-21T08:07:57;2.90;;;2.23;;
428;SDS011;201;48.758;9.290;2022-08-21T08:10:23;3.83;;;2.63;;
428;SDS011;201;48.758;9.290;2022-08-21T08:12:49;2.40;;;2.27;;
428;SDS011;201;48.758;9.290;2022-08-21T08:15:17;2.77;;;2.63;;
428;SDS011;201;48.758;9.290;2022-08-21T08:17:44;6.70;;;2.80;;
428;SDS011;201;48.758;9.290;2022-08-21T08:20:10;4.70;;;3.30;;
428;SDS011;201;48.758;9.290;2022-08-21T08:22:38;5.57;;;2.97;;
428;SDS011;201;48.758;9.290;2022-08-21T08:25:04;2.77;;;2.17;;
428;SDS011;201;48.758;9.290;2022-08-21T08:27:31;6.80;;;2.90;;
428;SDS011;201;48.758;9.290;2022-08-21T08:29:57;4.07;;;3.03;;
428;SDS011;201;48.758;9.290;2022-08-21T08:32:23;4.40;;;2.90;;
428;SDS011;201;48.758;9.290;2022-08-21T08:34:49;3.63;;;3.03;;
428;SDS011;201;48.758;9.290;2022-08-21T08:37:19;4.97;;;2.60;;
428;SDS011;201;48.758;9.290;2022-08-21T08:39:45;4.83;;;2.70;;
428;SDS011;201;48.758;9.290;2022-08-21T08:42:16;4.10;;;2.60;;
428;SDS011;201;48.758;9.290;2022-08-21T08:44:46;4.70;;;2.70;;
428;SDS011;201;48.758;9.290;2022-08-21T08:47:13;2.53;;;2.40;;
428;SDS011;201;48.758;9.290;2022-08-21T08:49:49;5.93;;;3.40;;
428;SDS011;201;48.758;9.290;2022-08-21T08:52:26;3.10;;;2.50;;
428;SDS011;201;48.758;9.290;2022-08-21T08:57:29;4.03;;;3.20;;
428;SDS011;201;48.758;9.290;2022-08-21T08:59:56;3.20;;;3.00;;
428;SDS011;201;48.758;9.290;2022-08-21T09:02:25;5.07;;;2.87;;
428;SDS011;201;48.758;9.290;2022-08-21T09:04:52;5.47;;;2.87;;
428;SDS011;201;48.758;9.290;2022-08-21T09:15:26;3.20;;;2.30;;
428;SDS011;201;48.758;9.290;2022-08-21T09:20:55;6.97;;;2.70;;
428;SDS011;201;48.758;9.290;2022-08-21T09:23:38;4.40;;;2.20;;
428;SDS011;201;48.758;9.290;2022-08-21T09:26:18;5.03;;;2.60;;
428;SDS011;201;48.758;9.290;2022-08-21T09:28:46;4.10;;;2.80;;
428;SDS011;201;48.758;9.290;2022-08-21T09:31:21;6.70;;;3.17;;
428;SDS011;201;48.758;9.290;2022-08-21T09:39:04;4.33;;;2.90;;
428;SDS011;201;48.758;9.290;2022-08-21T09:41:31;3.80;;;2.87;;
428;SDS011;201;48.758;9.290;2022-08-21T09:44:00;7.07;;;3.10;;
428;SDS011;201;48.758;9.290;2022-08-21T09:46:26;18.23;;;4.87;;
428;SDS011;201;48.758;9.290;2022-08-21T09:48:54;3.40;;;2.63;;
428;SDS011;201;48.758;9.290;2022-08-21T09:53:54;4.37;;;2.83;;
428;SDS011;201;48.758;9.290;2022-08-21T09:56:57;4.93;;;2.63;;
428;SDS011;201;48.758;9.290;2022-08-21T09:59:42;3.20;;;3.00;;
428;SDS011;201;48.758;9.290;2022-08-21T10:02:27;4.93;;;2.70;;
428;SDS011;201;48.758;9.290;2022-08-21T10:04:55;4.07;;;2.80;;
428;SDS011;201;48.758;9.290;2022-08-21T10:07:24;4.20;;;3.30;;
428;SDS011;201;48.758;9.290;2022-08-21T10:10:03;4.43;;;3.20;;
428;SDS011;201;48.758;9.290;2022-08-21T10:15:14;3.30;;;3.00;;
428;SDS011;201;48.758;9.290;2022-08-21T10:18:06;4.83;;;3.30;;
428;SDS011;201;48.758;9.290;2022-08-21T10:20:45;5.23;;;3.00;;
428;SDS011;201;48.758;9.290;2022-08-21T10:23:20;5.83;;;3.30;;
428;SDS011;201;48.758;9.290;2022-08-21T10:26:14;5.67;;;2.70;;
428;SDS011;201;48.758;9.290;2022-08-21T10:45:59;6.33;;;3.37;;
428;SDS011;201;48.758;9.290;2022-08-21T10:48:55;4.17;;;3.23;;
428;SDS011;201;48.758;9.290;2022-08-21T10:51:46;5.60;;;3.33;;
428;SDS011;201;48.758;9.290;2022-08-21T10:54:37;4.47;;;2.67;;
428;SDS011;201;48.758;9.290;2022-08-21T10:57:19;3.03;;;2.80;;
428;SDS011;201;48.758;9.290;2022-08-21T11:00:13;5.73;;;3.43;;
428;SDS011;201;48.758;9.290;2022-08-21T11:02:48;5.20;;;3.70;;
428;SDS011;201;48.758;9.290;2022-08-21T11:05:19;5.27;;;3.07;;
428;SDS011;201;48.758;9.290;2022-08-21T11:07:54;4.53;;;3.43;;
428;SDS011;201;48.758;9.290;2022-08-21T11:11:00;4.50;;;2.93;;
428;SDS011;201;48.758;9.290;2022-08-21T11:19:00;5.07;;;3.27;;
428;SDS011;201;48.758;9.290;2022-08-21T11:21:43;5.13;;;3.10;;
428;SDS011;201;48.758;9.290;2022-08-21T11:24:35;4.60;;;3.27;;
428;SDS011;201;48.758;9.290;2022-08-21T11:27:25;5.53;;;3.37;;
428;SDS011;201;48.758;9.290;2022-08-21T11:29:52;4.80;;;3.50;;
428;SDS011;201;48.758;9.290;2022-08-21T11:45:55;4.83;;;3.00;;
428;SDS011;201;48.758;9.290;2022-08-21T11:48:48;6.13;;;3.47;;
428;SDS011;201;48.758;9.290;2022-08-21T11:51:38;4.80;;;2.80;;
428;SDS011;201;48.758;9.290;2022-08-21T11:56:48;3.63;;;3.00;;
428;SDS011;201;48.758;9.290;2022-08-21T12:02:28;3.57;;;3.10;;
428;SDS011;201;48.758;9.290;2022-08-21T12:04:59;5.80;;;3.23;;
428;SDS011;201;48.758;9.290;2022-08-21T12:07:38;4.23;;;3.00;;
428;SDS011;201;48.758;9.290;2022-08-21T12:10:07;4.10;;;2.90;;
428;SDS011;201;48.758;9.290;2022-08-21T12:12:40;3.00;;;2.80;;
428;SDS011;201;48.758;9.290;2022-08-21T12:17:40;7.40;;;3.10;;
428;SDS011;201;48.758;9.290;2022-08-21T12:25:40;4.13;;;3.10;;
428;SDS011;201;48.758;9.290;2022-08-21T12:28:09;2.97;;;2.80;;
428;SDS011;201;48.758;9.290;2022-08-21T12:30:38;3.67;;;3.50;;
428;SDS011;201;48.758;9.290;2022-08-21T12:35:49;4.90;;;3.07;;
428;SDS011;201;48.758;9.290;2022-08-21T12:38:23;3.67;;;3.10;;
428;SDS011;201;48.758;9.290;2022-08-21T12:41:14;4.50;;;2.80;;
428;SDS011;201;48.758;9.290;2022-08-21T12:43:46;4.33;;;2.40;;
428;SDS011;201;48.758;9.290;2022-08-21T12:46:19;3.93;;;2.70;;
428;SDS011;201;48.758;9.290;2022-08-21T12:48:51;5.43;;;2.80;;
428;SDS011;201;48.758;9.290;2022-08-21T12:51:23;4.60;;;2.87;;
428;SDS011;201;48.758;9.290;2022-08-21T12:53:54;4.63;;;2.80;;
428;SDS011;201;48.758;9.290;2022-08-21T12:56:24;4.80;;;2.50;;
428;SDS011;201;48.758;9.290;2022-08-21T12:58:54;2.87;;;2.73;;
428;SDS011;201;48.758;9.290;2022-08-21T13:01:27;2.77;;;2.57;;
428;SDS011;201;48.758;9.290;2022-08-21T13:03:57;6.60;;;3.20;;
428;SDS011;201;48.758;9.290;2022-08-21T13:06:25;4.53;;;2.70;;
428;SDS011;201;48.758;9.290;2022-08-21T13:08:57;4.60;;;3.40;;
428;SDS011;201;48.758;9.290;2022-08-21T13:11:29;5.30;;;2.80;;
428;SDS011;201;48.758;9.290;2022-08-21T13:13:57;4.87;;;2.90;;
428;SDS011;201;48.758;9.290;2022-08-21T13:16:26;4.03;;;2.77;;
428;SDS011;201;48.758;9.290;2022-08-21T13:18:55;5.00;;;3.00;;
428;SDS011;201;48.758;9.290;2022-08-21T13:21:21;3.70;;;3.50;;
428;SDS011;201;48.758;9.290;2022-08-21T13:23:51;3.47;;;2.83;;
428;SDS011;201;48.758;9.290;2022-08-21T13:26:19;3.33;;;2.37;;
428;SDS011;201;48.758;9.290;2022-08-21T13:28:46;4.53;;;2.50;;
428;SDS011;201;48.758;9.290;2022-08-21T13:31:15;3.03;;;2.67;;
428;SDS011;201;48.758;9.290;2022-08-21T13:33:51;5.47;;;3.10;;
428;SDS011;201;48.758;9.290;2022-08-21T13:36:24;8.80;;;3.10;;
428;SDS011;201;48.758;9.290;2022-08-21T13:38:54;4.23;;;3.40;;
428;SDS011;201;48.758;9.290;2022-08-21T13:41:21;6.27;;;2.90;;
428;SDS011;201;48.758;9.290;2022-08-21T13:43:50;5.23;;;3.73;;
428;SDS011;201;48.758;9.290;2022-08-21T13:46:23;5.40;;;3.80;;
428;SDS011;201;48.758;9.290;2022-08-21T13:48:52;5.07;;;3.47;;
428;SDS011;201;48.758;9.290;2022-08-21T13:51:19;3.20;;;2.50;;
428;SDS011;201;48.758;9.290;2022-08-21T13:53:49;5.60;;;2.90;;
428;SDS011;201;48.758;9.290;2022-08-21T13:56:41;4.20;;;2.83;;
428;SDS011;201;48.758;9.290;2022-08-21T13:59:08;3.93;;;2.80;;
428;SDS011;201;48.758;9.290;2022-08-21T14:01:57;4.30;;;2.73;;
428;SDS011;201;48.758;9.290;2022-08-21T14:04:50;5.00;;;3.43;;
428;SDS011;201;48.758;9.290;2022-08-21T14:07:31;4.23;;;2.50;;
428;SDS011;201;48.758;9.290;2022-08-21T14:10:05;5.57;;;2.90;;
428;SDS011;201;48.758;9.290;2022-08-21T14:12:43;4.60;;;3.87;;
428;SDS011;201;48.758;9.290;2022-08-21T14:15:15;3.93;;;2.30;;
428;SDS011;201;48.758;9.290;2022-08-21T14:17:42;5.43;;;2.97;;
428;SDS011;201;48.758;9.290;2022-08-21T14:20:50;4.47;;;3.00;;
428;SDS011;201;48.758;9.290;2022-08-21T14:22:58;3.20;;;2.50;;
428;SDS011;201;48.758;9.290;2022-08-21T14:27:51;3.03;;;2.70;;
428;SDS011;201;48.758;9.290;2022-08-21T14:30:20;3.10;;;2.80;;
428;SDS011;201;48.758;9.290;2022-08-21T14:32:51;13.50;;;3.37;;
428;SDS011;201;48.758;9.290;2022-08-21T14:35:18;3.37;;;2.40;;
428;SDS011;201;48.758;9.290;2022-08-21T14:37:45;3.47;;;2.40;;
428;SDS011;201;48.758;9.290;2022-08-21T14:40:12;4.30;;;2.50;;
428;SDS011;201;48.758;9.290;2022-08-21T14:42:44;2.87;;;2.50;;
428;SDS011;201;48.758;9.290;2022-08-21T14:45:13;4.70;;;3.30;;
428;SDS011;201;48.758;9.290;2022-08-21T14:47:46;2.97;;;2.67;;
428;SDS011;201;48.758;9.290;2022-08-21T14:50:12;3.37;;;2.40;;
428;SDS011;201;48.758;9.290;2022-08-21T14:52:39;4.43;;;3.27;;
428;SDS011;201;48.758;9.290;2022-08-21T14:55:05;2.93;;;2.80;;
428;SDS011;201;48.758;9.290;2022-08-21T14:57:33;4.13;;;3.10;;
428;SDS011;201;48.758;9.290;2022-08-21T14:59:59;3.40;;;2.47;;
428;SDS011;201;48.758;9.290;2022-08-21T15:02:25;5.07;;;2.40;;
428;SDS011;201;48.758;9.290;2022-08-21T15:04:51;3.63;;;2.47;;
428;SDS011;201;48.758;9.290;2022-08-21T15:07:16;4.13;;;2.67;;
428;SDS011;201;48.758;9.290;2022-08-21T15:09:42;4.53;;;2.50;;
428;SDS011;201;48.758;9.290;2022-08-21T15:12:07;3.70;;;2.60;;
428;SDS011;201;48.758;9.290;2022-08-21T15:14:35;3.50;;;2.47;;
428;SDS011;201;48.758;9.290;2022-08-21T15:17:05;2.50;;;2.07;;
428;SDS011;201;48.758;9.290;2022-08-21T15:19:32;4.00;;;3.00;;
428;SDS011;201;48.758;9.290;2022-08-21T15:21:57;6.67;;;2.60;;
428;SDS011;201;48.758;9.290;2022-08-21T15:24:23;3.20;;;2.93;;
428;SDS011;201;48.758;9.290;2022-08-21T15:26:49;3.67;;;2.27;;
428;SDS011;201;48.758;9.290;2022-08-21T15:29:15;4.83;;;2.90;;
428;SDS011;201;48.758;9.290;2022-08-21T15:31:49;3.33;;;2.50;;
428;SDS011;201;48.758;9.290;2022-08-21T15:34:22;6.70;;;2.90;;
428;SDS011;201;48.758;9.290;2022-08-21T15:36:48;3.37;;;2.57;;
428;SDS011;201;48.758;9.290;2022-08-21T15:39:14;4.20;;;2.50;;
428;SDS011;201;48.758;9.290;2022-08-21T15:41:40;2.87;;;2.57;;
428;SDS011;201;48.758;9.290;2022-08-21T15:44:05;5.30;;;2.60;;
428;SDS011;201;48.758;9.290;2022-08-21T15:46:31;7.43;;;3.23;;
428;SDS011;201;48.758;9.290;2022-08-21T15:48:56;3.03;;;2.10;;
428;SDS011;201;48.758;9.290;2022-08-21T15:51:22;4.53;;;2.80;;
428;SDS011;201;48.758;9.290;2022-08-21T15:53:48;5.00;;;3.00;;
428;SDS011;201;48.758;9.290;2022-08-21T15:56:23;2.63;;;2.50;;
428;SDS011;201;48.758;9.290;2022-08-21T15:58:50;4.53;;;2.60;;
428;SDS011;201;48.758;9.290;2022-08-21T16:01:22;2.63;;;2.43;;
428;SDS011;201;48.758;9.290;2022-08-21T16:03:48;5.37;;;3.10;;
428;SDS011;201;48.758;9.290;2022-08-21T16:06:16;3.87;;;2.67;;
428;SDS011;201;48.758;9.290;2022-08-21T16:08:42;2.87;;;2.77;;
428;SDS011;201;48.758;9.290;2022-08-21T16:11:07;2.93;;;2.70;;
428;SDS011;201;48.758;9.290;2022-08-21T16:13:36;3.83;;;2.87;;
428;SDS011;201;48.758;9.290;2022-08-21T16:16:07;4.73;;;2.90;;
428;SDS011;201;48.758;9.290;2022-08-21T16:18:34;3.20;;;2.47;;
428;SDS011;201;48.758;9.290;2022-08-21T16:20:59;4.23;;;2.53;;
428;SDS011;201;48.758;9.290;2022-08-21T16:23:25;3.10;;;2.47;;
428;SDS011;201;48.758;9.290;2022-08-21T16:25:50;4.03;;;3.10;;
428;SDS011;201;48.758;9.290;2022-08-21T16:28:17;4.60;;;2.80;;
428;SDS011;201;48.758;9.290;2022-08-21T16:30:45;4.50;;;2.53;;
428;SDS011;201;48.758;9.290;2022-08-21T16:36:02;5.60;;;2.80;;
428;SDS011;201;48.758;9.290;2022-08-21T16:38:29;4.63;;;2.40;;
428;SDS011;201;48.758;9.290;2022-08-21T16:40:56;6.00;;;3.00;;
428;SDS011;201;48.758;9.290;2022-08-21T16:43:24;3.23;;;2.40;;
428;SDS011;201;48.758;9.290;2022-08-21T16:45:52;3.30;;;2.60;;
428;SDS011;201;48.758;9.290;2022-08-21T16:48:18;5.27;;;2.80;;
428;SDS011;201;48.758;9.290;2022-08-21T16:50:44;3.77;;;2.37;;
428;SDS011;201;48.758;9.290;2022-08-21T16:53:10;3.07;;;2.33;;
428;SDS011;201;48.758;9.290;2022-08-21T16:55:35;2.57;;;2.37;;
428;SDS011;201;48.758;9.290;2022-08-21T16:58:03;3.47;;;2.83;;
428;SDS011;201;48.758;9.290;2022-08-21T17:00:38;6.80;;;2.77;;
428;SDS011;201;48.758;9.290;2022-08-21T17:03:04;4.10;;;2.70;;
428;SDS011;201;48.758;9.290;2022-08-21T17:05:30;2.70;;;2.23;;
428;SDS011;201;48.758;9.290;2022-08-21T17:07:55;3.13;;;2.40;;
428;SDS011;201;48.758;9.290;2022-08-21T17:10:21;5.50;;;2.70;;
428;SDS011;201;48.758;9.290;2022-08-21T17:12:48;4.00;;;2.67;;
428;SDS011;201;48.758;9.290;2022-08-21T17:15:21;5.27;;;2.70;;
428;SDS011;201;48.758;9.290;2022-08-21T17:17:50;3.37;;;2.50;;